Time;durP1;ratioP1;P1;durP2;ratioP2;P2;SDS_P1;SDS_P2;PMS_P1;PMS_P2;Temp;Humidity;BMP_temperature;BMP_pressure;BME280_temperature;BME280_humidity;BME280_pressure;Samples;Min_cycle;Max_cycle;Signal;HPM_P1;HPM_P2
2021/07/06 00:02:03;;;;;;;1.15;1.08;;;22.70;95.70;;;;;;5055508;28;20032;-77
2021/07/06 00:04:29;;;;;;;2.20;1.00;;;22.70;95.80;;;;;;5055483;28;20033;-77
2021/07/06 00:06:56;;;;;;;1.15;1.05;;;22.70;95.80;;;;;;5055472;28;20040;-77
2021/07/06 00:09:21;;;;;;;1.13;1.13;;;22.70;95.80;;;;;;5055538;28;20100;-77
2021/07/06 00:11:48;;;;;;;1.67;1.15;;;22.70;95.70;;;;;;5055430;28;20452;-77
2021/07/06 00:14:14;;;;;;;1.17;1.17;;;22.70;95.60;;;;;;5055594;28;20021;-77
2021/07/06 00:16:40;;;;;;;1.38;1.27;;;22.70;95.60;;;;;;5055419;28;20112;-77
2021/07/06 00:19:06;;;;;;;1.35;1.25;;;22.60;95.70;;;;;;5055232;28;20706;-77
2021/07/06 00:21:32;;;;;;;0.90;0.90;;;22.70;95.60;;;;;;5055243;28;20116;-78
2021/07/06 00:23:57;;;;;;;1.23;1.10;;;22.60;95.70;;;;;;5055017;28;20634;-77
2021/07/06 00:26:24;;;;;;;4.30;1.52;;;22.70;95.70;;;;;;5054978;28;20040;-77
2021/07/06 00:28:49;;;;;;;1.35;1.30;;;22.70;95.70;;;;;;5055181;28;20099;-78
2021/07/06 00:31:15;;;;;;;2.45;1.00;;;22.60;95.50;;;;;;5053778;28;20538;-77
2021/07/06 00:33:41;;;;;;;1.23;1.15;;;22.70;95.70;;;;;;5053756;28;20067;-77
2021/07/06 00:36:08;;;;;;;1.30;1.17;;;22.70;95.50;;;;;;5054957;28;20046;-78
2021/07/06 00:38:34;;;;;;;1.30;1.13;;;22.60;95.50;;;;;;5055083;28;20435;-77
2021/07/06 00:41:01;;;;;;;1.40;1.30;;;22.70;95.60;;;;;;5053685;28;20059;-78
2021/07/06 00:43:28;;;;;;;2.08;1.20;;;22.60;95.50;;;;;;5054964;28;20090;-77
2021/07/06 00:45:58;;;;;;;2.30;1.50;;;22.70;95.70;;;;;;5054666;28;20415;-78
2021/07/06 00:48:25;;;;;;;2.45;1.55;;;22.60;95.80;;;;;;5054656;28;20037;-77
2021/07/06 00:50:51;;;;;;;2.45;1.40;;;22.60;95.80;;;;;;5054620;28;20021;-77
2021/07/06 00:53:17;;;;;;;2.47;1.58;;;22.50;95.70;;;;;;5054435;28;20491;-77
2021/07/06 00:55:44;;;;;;;1.30;1.20;;;22.50;95.80;;;;;;5054914;28;20154;-77
2021/07/06 00:58:15;;;;;;;2.63;1.20;;;22.50;95.90;;;;;;5054308;28;20488;-78
2021/07/06 01:00:41;;;;;;;1.60;1.50;;;22.50;96.40;;;;;;5054246;28;20025;-78
2021/07/06 01:03:07;;;;;;;1.60;1.50;;;22.50;96.00;;;;;;5054675;28;20035;-78
2021/07/06 01:05:33;;;;;;;2.50;1.63;;;22.50;95.90;;;;;;5053351;28;20028;-78
2021/07/06 01:07:59;;;;;;;2.25;1.02;;;22.50;95.90;;;;;;5054399;28;20035;-78
2021/07/06 01:10:26;;;;;;;1.63;1.52;;;22.50;96.00;;;;;;5053259;28;20120;-78
2021/07/06 01:12:53;;;;;;;1.55;1.27;;;22.50;96.00;;;;;;5052764;28;20025;-78
2021/07/06 01:15:24;;;;;;;1.42;1.40;;;22.50;96.10;;;;;;5054322;28;20032;-78
2021/07/06 01:18:09;;;;;;;1.45;1.38;;;22.40;96.10;;;;;;5053890;28;20108;-78
2021/07/06 01:20:36;;;;;;;1.60;1.50;;;22.50;96.30;;;;;;5053950;28;20060;-78
2021/07/06 01:23:05;;;;;;;1.73;1.63;;;22.40;96.50;;;;;;5053575;28;20044;-78
2021/07/06 01:25:33;;;;;;;1.30;1.30;;;22.40;96.60;;;;;;5057685;28;20048;-78
2021/07/06 01:27:59;;;;;;;1.73;1.63;;;22.40;96.90;;;;;;5053414;28;20025;-78
2021/07/06 01:30:25;;;;;;;1.83;1.73;;;22.30;96.80;;;;;;5052590;28;20164;-77
2021/07/06 01:32:51;;;;;;;1.55;1.45;;;22.20;97.00;;;;;;5052530;28;20543;-78
2021/07/06 01:35:18;;;;;;;1.20;1.10;;;22.30;97.00;;;;;;5052639;28;20025;-78
2021/07/06 01:37:52;;;;;;;6.18;1.60;;;22.30;97.00;;;;;;5053388;28;20375;-78
2021/07/06 01:40:20;;;;;;;1.60;1.50;;;22.30;97.10;;;;;;5053589;28;20025;-78
2021/07/06 01:42:47;;;;;;;3.80;1.50;;;22.20;97.10;;;;;;5054509;28;20021;-77
2021/07/06 01:45:16;;;;;;;1.38;1.38;;;22.20;97.30;;;;;;5054042;28;20039;-77
2021/07/06 01:47:44;;;;;;;1.33;1.33;;;22.10;97.40;;;;;;5053866;28;20499;-77
2021/07/06 01:50:16;;;;;;;1.73;1.63;;;22.10;97.50;;;;;;5053829;28;20043;-78
2021/07/06 01:52:47;;;;;;;1.05;1.05;;;22.10;97.70;;;;;;5053837;28;20525;-78
2021/07/06 01:55:19;;;;;;;1.30;1.30;;;22.10;97.60;;;;;;5053947;28;20411;-77
2021/07/06 01:57:46;;;;;;;1.60;1.50;;;22.10;97.70;;;;;;5053848;28;20089;-77
2021/07/06 02:00:16;;;;;;;2.25;1.50;;;22.00;97.90;;;;;;5053858;28;20475;-78
2021/07/06 02:02:43;;;;;;;1.70;1.60;;;22.00;98.00;;;;;;5053565;28;20025;-77
2021/07/06 02:05:15;;;;;;;1.98;1.88;;;21.90;98.20;;;;;;5053872;28;20113;-78
2021/07/06 02:07:41;;;;;;;;;;;21.80;98.60;;;;;;5053800;28;20055;-78
2021/07/06 02:10:08;;;;;;;2.25;1.83;;;21.80;99.00;;;;;;5053383;28;19909;-78
2021/07/06 02:12:35;;;;;;;1.98;1.88;;;21.70;99.00;;;;;;5037698;28;20384;-77
2021/07/06 02:15:01;;;;;;;1.60;1.50;;;21.70;99.20;;;;;;5033520;28;20083;-77
2021/07/06 02:17:27;;;;;;;1.65;1.55;;;21.70;99.30;;;;;;5033477;28;20029;-77
2021/07/06 02:19:54;;;;;;;1.90;1.80;;;21.70;99.30;;;;;;5033492;28;20052;-77
2021/07/06 02:22:20;;;;;;;2.50;2.30;;;21.70;99.30;;;;;;5033444;28;20180;-78
2021/07/06 02:24:46;;;;;;;1.98;1.88;;;21.70;99.30;;;;;;5033468;28;20479;-78
2021/07/06 02:27:12;;;;;;;2.10;1.90;;;21.80;99.30;;;;;;5042560;28;20037;-78
2021/07/06 02:29:38;;;;;;;1.98;1.70;;;21.80;99.30;;;;;;5052992;28;20021;-78
2021/07/06 02:32:05;;;;;;;1.80;1.70;;;21.70;99.30;;;;;;5052994;28;20498;-77
2021/07/06 02:34:30;;;;;;;1.75;1.65;;;21.70;99.50;;;;;;5052893;28;20099;-78
2021/07/06 02:36:57;;;;;;;2.03;1.92;;;21.60;99.50;;;;;;5053041;28;20431;-78
2021/07/06 02:39:23;;;;;;;1.98;1.77;;;21.60;99.50;;;;;;5052893;28;20021;-77
2021/07/06 02:41:49;;;;;;;1.77;1.67;;;21.60;99.70;;;;;;5043012;28;20506;-77
2021/07/06 02:44:14;;;;;;;2.08;1.88;;;21.60;99.70;;;;;;5032659;28;20025;-78
2021/07/06 02:46:41;;;;;;;1.80;1.70;;;21.60;99.70;;;;;;5032789;28;20033;-77
2021/07/06 02:49:06;;;;;;;1.90;1.80;;;21.60;99.70;;;;;;5032807;28;20025;-78
2021/07/06 02:51:33;;;;;;;3.05;1.70;;;21.70;99.80;;;;;;5032849;28;20026;-78
2021/07/06 02:53:59;;;;;;;1.70;1.50;;;21.70;99.80;;;;;;5031523;28;20136;-77
2021/07/06 02:56:25;;;;;;;2.47;1.65;;;21.70;99.70;;;;;;5032957;28;20549;-77
2021/07/06 02:58:51;;;;;;;2.92;1.67;;;21.70;99.80;;;;;;5032801;28;20029;-77
2021/07/06 03:01:16;;;;;;;1.90;1.80;;;21.70;99.90;;;;;;5032807;28;20388;-77
2021/07/06 03:03:42;;;;;;;2.63;1.40;;;21.70;99.90;;;;;;5032751;28;20029;-78
2021/07/06 03:06:08;;;;;;;2.05;1.70;;;21.70;99.90;;;;;;5032655;28;20026;-77
2021/07/06 03:08:34;;;;;;;1.35;1.35;;;21.70;99.90;;;;;;5031421;28;20571;-78
2021/07/06 03:11:00;;;;;;;2.35;1.88;;;21.70;99.90;;;;;;5032576;28;20017;-78
2021/07/06 03:13:26;;;;;;;2.88;1.73;;;21.80;99.80;;;;;;5042590;28;20120;-77
2021/07/06 03:15:52;;;;;;;2.47;1.88;;;21.80;99.60;;;;;;5051240;28;20013;-78
2021/07/06 03:18:18;;;;;;;1.77;1.67;;;21.70;99.50;;;;;;5052286;28;20447;-77
2021/07/06 03:20:44;;;;;;;1.73;1.60;;;21.80;99.50;;;;;;5052202;28;20025;-77
2021/07/06 03:23:09;;;;;;;1.75;1.65;;;21.70;99.50;;;;;;5052332;28;20029;-78
2021/07/06 03:25:36;;;;;;;1.65;1.50;;;21.80;99.50;;;;;;5052531;28;20032;-78
2021/07/06 03:28:03;;;;;;;1.75;1.65;;;21.70;99.60;;;;;;5052290;28;20119;-77
2021/07/06 03:30:31;;;;;;;1.50;1.40;;;21.70;99.70;;;;;;5052405;28;20088;-77
2021/07/06 03:32:59;;;;;;;2.10;1.40;;;21.80;99.70;;;;;;5050735;28;20700;-78
2021/07/06 03:35:26;;;;;;;1.90;1.80;;;21.70;99.80;;;;;;5052490;28;20025;-77
2021/07/06 03:37:53;;;;;;;2.05;1.85;;;21.60;99.90;;;;;;5052487;28;20434;-77
2021/07/06 03:40:19;;;;;;;1.33;1.30;;;21.60;99.90;;;;;;5051236;28;20029;-77
2021/07/06 03:42:45;;;;;;;1.70;1.60;;;21.70;99.90;;;;;;5050466;28;20403;-78
2021/07/06 03:45:12;;;;;;;1.35;1.35;;;21.70;99.90;;;;;;5052413;28;20088;-78
2021/07/06 03:47:38;;;;;;;1.60;1.50;;;21.60;99.90;;;;;;5052179;28;20487;-77
2021/07/06 03:50:07;;;;;;;2.05;1.80;;;21.60;99.90;;;;;;5052008;28;20029;-77
2021/07/06 03:52:33;;;;;;;1.52;1.42;;;21.60;99.90;;;;;;5051811;28;20514;-77
2021/07/06 03:54:59;;;;;;;2.08;1.75;;;21.70;99.90;;;;;;5052051;28;20517;-77
2021/07/06 03:57:31;;;;;;;1.83;1.73;;;21.70;99.90;;;;;;5055884;28;20037;-77
2021/07/06 03:59:58;;;;;;;1.98;1.88;;;21.70;99.90;;;;;;5055809;28;20025;-78
2021/07/06 04:02:24;;;;;;;1.35;1.35;;;21.70;99.90;;;;;;5055410;28;20475;-77
2021/07/06 04:04:51;;;;;;;1.80;1.70;;;21.70;99.90;;;;;;5055719;28;20025;-77
2021/07/06 04:07:17;;;;;;;1.63;1.52;;;21.70;99.90;;;;;;5055476;28;20071;-78
2021/07/06 04:09:43;;;;;;;1.90;1.80;;;21.70;99.90;;;;;;5055595;28;20426;-77
2021/07/06 04:12:09;;;;;;;1.83;1.73;;;21.60;99.90;;;;;;5055776;28;20067;-77
2021/07/06 04:14:35;;;;;;;1.88;1.77;;;21.60;99.90;;;;;;5054509;28;20045;-77
2021/07/06 04:17:01;;;;;;;4.25;2.00;;;21.60;99.90;;;;;;5054076;28;20083;-77
2021/07/06 04:19:27;;;;;;;2.33;2.00;;;21.60;99.90;;;;;;5055293;28;20637;-77
2021/07/06 04:21:53;;;;;;;2.10;1.90;;;21.70;99.90;;;;;;5055216;28;20047;-77
2021/07/06 04:24:18;;;;;;;2.20;2.05;;;21.70;99.90;;;;;;5055428;28;20025;-78
2021/07/06 04:26:44;;;;;;;2.92;1.90;;;21.70;99.90;;;;;;5053932;28;20029;-77
2021/07/06 04:29:10;;;;;;;1.80;1.70;;;21.80;99.80;;;;;;5055421;28;20024;-77
2021/07/06 04:31:36;;;;;;;3.03;1.75;;;21.80;99.80;;;;;;5054024;28;20024;-77
2021/07/06 04:34:03;;;;;;;4.43;1.52;;;21.90;99.80;;;;;;5055184;28;20013;-77
2021/07/06 04:36:28;;;;;;;1.95;1.77;;;21.90;99.90;;;;;;5053858;28;20017;-77
2021/07/06 04:38:54;;;;;;;2.03;1.63;;;21.90;99.90;;;;;;5055076;28;20025;-77
2021/07/06 04:41:20;;;;;;;1.70;1.60;;;21.90;99.90;;;;;;5055016;28;20028;-77
2021/07/06 04:43:46;;;;;;;2.25;2.03;;;22.00;99.90;;;;;;5054993;28;20082;-77
2021/07/06 04:46:12;;;;;;;2.60;2.08;;;22.00;99.90;;;;;;5054817;28;20036;-77
2021/07/06 04:48:38;;;;;;;1.83;1.73;;;22.00;99.90;;;;;;5054979;28;20029;-77
2021/07/06 04:51:06;;;;;;;2.50;1.80;;;22.00;99.90;;;;;;5054641;28;20100;-77
2021/07/06 04:53:32;;;;;;;2.30;2.20;;;22.00;99.90;;;;;;5054449;28;20037;-78
2021/07/06 04:55:58;;;;;;;2.35;2.13;;;22.10;99.70;;;;;;5045953;28;20399;-78
2021/07/06 04:58:25;;;;;;;2.03;1.92;;;22.20;99.70;;;;;;5053454;28;20017;-78
2021/07/06 05:00:51;;;;;;;2.17;2.05;;;22.20;99.50;;;;;;5054594;28;20052;-77
2021/07/06 05:03:16;;;;;;;2.10;2.00;;;22.30;99.70;;;;;;5054787;28;20051;-77
2021/07/06 05:05:42;;;;;;;2.15;2.00;;;22.30;99.70;;;;;;5053855;28;20033;-77
2021/07/06 05:08:11;;;;;;;2.17;1.98;;;22.30;99.80;;;;;;5054011;28;20021;-77
2021/07/06 05:10:37;;;;;;;3.28;2.08;;;22.30;99.50;;;;;;5054476;28;20025;-77
2021/07/06 05:13:03;;;;;;;2.92;2.05;;;22.40;99.30;;;;;;5033226;28;20071;-77
2021/07/06 05:15:29;;;;;;;2.40;2.20;;;22.40;99.20;;;;;;5034322;28;20108;-77
2021/07/06 05:17:55;;;;;;;3.85;2.08;;;22.50;99.10;;;;;;5034407;28;20108;-77
2021/07/06 05:20:21;;;;;;;2.25;2.00;;;22.50;99.10;;;;;;5034396;28;20030;-77
2021/07/06 05:22:47;;;;;;;2.05;1.90;;;22.50;99.10;;;;;;5033884;28;20074;-77
2021/07/06 05:25:14;;;;;;;2.08;1.98;;;22.60;99.10;;;;;;5044502;28;20033;-77
2021/07/06 05:27:40;;;;;;;1.85;1.75;;;22.60;99.20;;;;;;5052413;28;20044;-77
2021/07/06 05:30:07;;;;;;;2.95;2.17;;;22.70;99.10;;;;;;5053896;28;20478;-77
2021/07/06 05:32:36;;;;;;;5.22;2.15;;;22.80;99.30;;;;;;5053731;28;20048;-77
2021/07/06 05:35:01;;;;;;;2.53;1.55;;;22.90;99.10;;;;;;5053567;28;20056;-77
2021/07/06 05:37:27;;;;;;;3.22;1.85;;;22.90;99.20;;;;;;5052562;28;20068;-77
2021/07/06 05:39:53;;;;;;;2.20;2.00;;;22.90;99.30;;;;;;5053865;28;20021;-77
2021/07/06 05:42:18;;;;;;;4.30;2.25;;;23.00;99.30;;;;;;5053765;28;20028;-77
2021/07/06 05:44:46;;;;;;;5.03;2.22;;;23.00;99.40;;;;;;5053732;28;20551;-77
2021/07/06 05:47:11;;;;;;;2.13;2.03;;;23.10;99.50;;;;;;5053785;28;20036;-77
2021/07/06 05:49:37;;;;;;;8.40;2.55;;;23.10;99.50;;;;;;5053737;28;20021;-77
2021/07/06 05:52:03;;;;;;;3.03;1.70;;;23.10;99.30;;;;;;5053358;28;20017;-77
2021/07/06 05:54:29;;;;;;;2.20;2.00;;;23.20;99.50;;;;;;5053321;28;20025;-77
2021/07/06 05:56:55;;;;;;;2.05;1.95;;;23.30;99.70;;;;;;5053468;28;20135;-77
2021/07/06 05:59:21;;;;;;;3.70;2.00;;;23.30;99.70;;;;;;5053424;28;20036;-77
2021/07/06 06:01:46;;;;;;;2.15;2.05;;;23.30;99.60;;;;;;5053108;28;20040;-77
2021/07/06 06:04:13;;;;;;;1.52;1.42;;;23.40;99.50;;;;;;5053580;28;20043;-75
2021/07/06 06:06:38;;;;;;;3.92;1.88;;;23.40;99.60;;;;;;5053465;28;20082;-77
2021/07/06 06:09:04;;;;;;;1.88;1.77;;;23.50;99.60;;;;;;5053478;28;20029;-77
2021/07/06 06:11:30;;;;;;;2.33;2.13;;;23.50;99.80;;;;;;5046049;28;20021;-77
2021/07/06 06:13:56;;;;;;;2.58;2.00;;;23.60;99.90;;;;;;5033448;28;20030;-77
2021/07/06 06:16:22;;;;;;;5.60;1.95;;;23.60;99.60;;;;;;5047683;28;20032;-77
2021/07/06 06:18:54;;;;;;;1.92;1.60;;;23.70;99.80;;;;;;5048580;28;20029;-77
2021/07/06 06:21:24;;;;;;;2.42;2.00;;;23.70;99.60;;;;;;5049961;28;20064;-77
2021/07/06 06:23:51;;;;;;;5.63;1.80;;;23.80;99.90;;;;;;5052363;28;20036;-77
2021/07/06 06:26:17;;;;;;;3.47;2.03;;;23.90;99.90;;;;;;5050312;28;20029;-77
2021/07/06 06:28:42;;;;;;;2.50;1.85;;;23.90;99.90;;;;;;5052039;28;20118;-77
2021/07/06 06:31:08;;;;;;;3.95;2.13;;;23.90;99.90;;;;;;5051770;28;20110;-77
2021/07/06 06:33:34;;;;;;;12.90;2.42;;;24.00;99.50;;;;;;5048552;28;20463;-77
2021/07/06 06:36:00;;;;;;;7.30;2.50;;;24.00;99.50;;;;;;5048818;28;20121;-77
2021/07/06 06:38:25;;;;;;;4.35;2.47;;;24.10;99.40;;;;;;5050102;28;20032;-77
2021/07/06 06:40:51;;;;;;;6.40;1.92;;;24.10;99.90;;;;;;5046716;28;20166;-77
2021/07/06 06:43:17;;;;;;;2.13;2.03;;;24.10;99.90;;;;;;5049113;28;20032;-77
2021/07/06 06:45:45;;;;;;;2.58;1.48;;;24.20;99.10;;;;;;5050737;28;20040;-76
2021/07/06 06:48:11;;;;;;;2.15;1.77;;;24.20;99.40;;;;;;5050269;28;20032;-77
2021/07/06 06:50:37;;;;;;;2.65;1.73;;;24.30;98.90;;;;;;5049808;28;20021;-77
2021/07/06 06:53:03;;;;;;;3.85;2.20;;;24.30;98.80;;;;;;5048758;28;20049;-77
2021/07/06 06:55:29;;;;;;;1.52;1.42;;;24.50;98.30;;;;;;5048936;28;20116;-76
2021/07/06 06:57:54;;;;;;;2.80;1.65;;;24.50;97.80;;;;;;5049814;28;20025;-76
2021/07/06 07:00:20;;;;;;;1.55;1.45;;;24.50;96.60;;;;;;5050337;28;20546;-76
2021/07/06 07:02:49;;;;;;;1.63;1.50;;;24.60;96.70;;;;;;5049145;28;20032;-76
2021/07/06 07:05:15;;;;;;;3.42;1.65;;;24.60;97.20;;;;;;5049435;28;20075;-76
2021/07/06 07:07:41;;;;;;;1.63;1.42;;;24.70;95.80;;;;;;5048765;28;20446;-77
2021/07/06 07:10:07;;;;;;;1.30;1.20;;;24.70;96.30;;;;;;5048826;28;20077;-77
2021/07/06 07:12:35;;;;;;;1.50;1.40;;;24.80;96.70;;;;;;5048558;28;20182;-77
2021/07/06 07:15:03;;;;;;;1.77;1.63;;;24.80;96.60;;;;;;5049156;28;20028;-77
2021/07/06 07:17:28;;;;;;;1.10;1.10;;;24.80;96.20;;;;;;5048882;28;20029;-77
2021/07/06 07:19:54;;;;;;;1.75;1.65;;;24.90;95.40;;;;;;5048641;28;20388;-77
2021/07/06 07:22:21;;;;;;;1.30;1.20;;;24.90;94.90;;;;;;5048742;28;20029;-77
2021/07/06 07:24:47;;;;;;;2.05;1.15;;;25.00;92.90;;;;;;5048859;28;20025;-77
2021/07/06 07:27:12;;;;;;;1.40;1.30;;;25.00;94.00;;;;;;5050845;28;20022;-77
2021/07/06 07:29:38;;;;;;;1.50;1.40;;;25.00;94.20;;;;;;5047718;28;20612;-77
2021/07/06 07:32:05;;;;;;;1.35;1.30;;;25.00;94.00;;;;;;5052364;28;20056;-77
2021/07/06 07:34:33;;;;;;;1.98;1.00;;;25.30;93.60;;;;;;5051373;28;20075;-76
2021/07/06 07:36:59;;;;;;;1.05;0.90;;;25.30;93.60;;;;;;5052688;28;20016;-77
2021/07/06 07:39:25;;;;;;;1.00;1.00;;;25.40;92.60;;;;;;5054329;28;20078;-76
2021/07/06 07:41:51;;;;;;;1.02;0.75;;;25.40;92.40;;;;;;5051653;28;20394;-76
2021/07/06 07:44:17;;;;;;;0.75;0.75;;;25.40;90.70;;;;;;5054490;28;20025;-77
2021/07/06 07:46:43;;;;;;;1.10;1.00;;;25.50;90.20;;;;;;5054889;28;20036;-77
2021/07/06 07:49:09;;;;;;;0.80;0.80;;;25.50;90.40;;;;;;5054838;28;20371;-74
2021/07/06 07:51:35;;;;;;;0.65;0.65;;;25.50;91.60;;;;;;5053498;28;20025;-73
2021/07/06 07:54:00;;;;;;;1.00;1.00;;;25.70;90.10;;;;;;5052835;28;20056;-76
2021/07/06 07:56:26;;;;;;;1.20;1.10;;;25.60;90.90;;;;;;5054398;28;20017;-76
2021/07/06 07:58:52;;;;;;;0.82;0.82;;;25.70;90.80;;;;;;5053568;28;20372;-76
2021/07/06 08:01:19;;;;;;;0.82;0.68;;;25.70;90.30;;;;;;5053083;28;20051;-77
2021/07/06 08:03:44;;;;;;;2.00;0.70;;;25.60;86.00;;;;;;5053571;28;20086;-77
2021/07/06 08:06:10;;;;;;;0.80;0.80;;;25.60;86.30;;;;;;5054500;28;20033;-77
2021/07/06 08:08:37;;;;;;;1.17;0.50;;;25.70;84.50;;;;;;5053164;28;20036;-77
2021/07/06 08:11:04;;;;;;;0.60;0.60;;;25.70;80.70;;;;;;5052744;28;20108;-77
2021/07/06 08:13:33;;;;;;;0.68;0.68;;;25.80;76.20;;;;;;5053200;28;20017;-77
2021/07/06 08:19:19;;;;;;;0.70;0.70;;;25.90;79.50;;;;;;5053996;28;20122;-78
2021/07/06 08:22:06;;;;;;;0.93;0.80;;;25.90;77.90;;;;;;5051783;28;20056;-78
2021/07/06 08:24:54;;;;;;;0.73;0.73;;;26.00;79.40;;;;;;5050603;28;20541;-78
2021/07/06 08:27:28;;;;;;;0.60;0.60;;;26.10;78.80;;;;;;5053398;28;20032;-77
2021/07/06 08:29:54;;;;;;;0.63;0.57;;;26.10;78.70;;;;;;5054793;28;20078;-77
2021/07/06 08:32:19;;;;;;;0.80;0.80;;;26.10;81.10;;;;;;5055270;28;20017;-77
2021/07/06 08:34:45;;;;;;;0.90;0.90;;;26.10;77.80;;;;;;5053906;28;20040;-77
2021/07/06 08:37:11;;;;;;;0.80;0.70;;;26.10;76.40;;;;;;5053411;28;20028;-77
2021/07/06 08:39:37;;;;;;;0.90;0.90;;;26.10;76.40;;;;;;5054811;28;20052;-77
2021/07/06 08:42:06;;;;;;;1.10;1.00;;;26.20;81.30;;;;;;5041210;28;20112;-77
2021/07/06 08:44:32;;;;;;;0.52;0.52;;;26.20;81.30;;;;;;5034768;28;20070;-77
2021/07/06 08:47:02;;;;;;;1.95;0.90;;;26.20;80.00;;;;;;5035007;28;20022;-77
2021/07/06 08:49:28;;;;;;;0.70;0.70;;;26.20;79.00;;;;;;5035003;28;20475;-77
2021/07/06 08:51:54;;;;;;;2.30;0.80;;;26.30;79.30;;;;;;5035000;28;20017;-77
2021/07/06 08:54:20;;;;;;;0.75;0.75;;;26.40;79.90;;;;;;5033365;28;20132;-77
2021/07/06 08:56:47;;;;;;;0.68;0.68;;;26.50;78.90;;;;;;5034687;28;20025;-78
2021/07/06 08:59:13;;;;;;;1.00;0.88;;;26.50;78.70;;;;;;5034914;28;20367;-76
2021/07/06 09:01:39;;;;;;;3.95;0.95;;;26.50;79.60;;;;;;5034777;28;20021;-76
2021/07/06 09:04:05;;;;;;;1.13;1.08;;;26.40;80.90;;;;;;5032940;28;20411;-77
2021/07/06 09:06:54;;;;;;;0.77;0.77;;;26.40;80.20;;;;;;5034358;28;20029;-78
2021/07/06 09:09:22;;;;;;;15.05;1.20;;;26.50;79.60;;;;;;5033435;28;20472;-78
2021/07/06 09:11:50;;;;;;;1.27;0.90;;;26.50;80.10;;;;;;5044082;28;20071;-77
2021/07/06 09:14:17;;;;;;;0.90;0.90;;;26.60;80.00;;;;;;5054363;28;20028;-77
2021/07/06 09:16:43;;;;;;;1.00;1.00;;;26.80;77.40;;;;;;5054191;28;20021;-78
2021/07/06 09:19:25;;;;;;;1.20;1.00;;;26.90;74.30;;;;;;5054467;28;20033;-77
2021/07/06 09:22:09;;;;;;;;;;;27.00;78.00;;;;;;5053516;28;20021;-77
2021/07/06 09:24:35;;;;;;;0.80;0.80;;;27.00;75.10;;;;;;5053268;28;19909;-78
2021/07/06 09:27:20;;;;;;;0.63;0.63;;;26.90;71.50;;;;;;5053931;28;20115;-77
2021/07/06 09:30:05;;;;;;;0.90;0.90;;;27.00;71.00;;;;;;5052783;28;20537;-77
2021/07/06 09:32:31;;;;;;;0.57;0.57;;;27.00;73.80;;;;;;5052609;28;20021;-78
2021/07/06 09:35:25;;;;;;;2.78;1.25;;;27.10;77.80;;;;;;5055538;28;20499;-78
2021/07/06 09:37:57;;;;;;;2.83;1.13;;;27.10;78.20;;;;;;5072665;28;20056;-78
2021/07/06 09:40:33;;;;;;;1.20;1.08;;;27.30;73.30;;;;;;5072998;28;20040;-78
2021/07/06 09:43:24;;;;;;;1.92;0.95;;;27.40;69.70;;;;;;5072467;28;20050;-78
2021/07/06 09:45:57;;;;;;;1.13;0.98;;;27.40;69.10;;;;;;5073686;28;20009;-78
2021/07/06 09:48:23;;;;;;;0.90;0.90;;;27.40;69.90;;;;;;5072174;28;20032;-78
2021/07/06 09:50:49;;;;;;;1.15;1.00;;;27.40;69.10;;;;;;5073647;28;20099;-78
2021/07/06 09:53:32;;;;;;;2.28;0.80;;;27.50;70.10;;;;;;5071453;28;20048;-78
2021/07/06 09:55:58;;;;;;;0.82;0.82;;;27.60;74.60;;;;;;5072384;28;20035;-78
2021/07/06 09:58:24;;;;;;;0.65;0.65;;;27.60;75.70;;;;;;5073336;28;20028;-78
2021/07/06 10:00:52;;;;;;;1.02;1.02;;;27.60;71.50;;;;;;5073427;28;20029;-78
2021/07/06 10:03:18;;;;;;;1.40;0.80;;;27.70;69.20;;;;;;5073478;28;20103;-78
2021/07/06 10:05:45;;;;;;;0.98;0.98;;;27.70;70.30;;;;;;5073232;28;20029;-78
2021/07/06 10:08:12;;;;;;;0.98;0.98;;;27.90;70.90;;;;;;5073222;28;20089;-78
2021/07/06 10:10:37;;;;;;;1.35;1.25;;;28.00;71.80;;;;;;5073155;28;20543;-78
2021/07/06 10:13:04;;;;;;;1.25;1.20;;;28.10;73.40;;;;;;5073434;28;20017;-77
2021/07/06 10:15:31;;;;;;;1.35;1.25;;;28.10;74.50;;;;;;5073158;28;20489;-77
2021/07/06 10:17:57;;;;;;;1.13;1.02;;;28.10;73.30;;;;;;5060144;28;20010;-77
2021/07/06 10:20:27;;;;;;;1.15;1.10;;;28.20;73.80;;;;;;5053072;28;20029;-77
2021/07/06 10:22:58;;;;;;;1.35;0.80;;;28.40;68.80;;;;;;5053089;28;20028;-77
2021/07/06 10:25:30;;;;;;;0.70;0.65;;;28.50;69.70;;;;;;5053024;28;20032;-76
2021/07/06 10:28:00;;;;;;;0.90;0.90;;;28.60;68.50;;;;;;5053124;28;20029;-74
2021/07/06 10:30:32;;;;;;;1.10;1.10;;;28.60;64.80;;;;;;5053065;28;20021;-74
2021/07/06 10:32:59;;;;;;;1.40;1.25;;;28.60;69.40;;;;;;5052799;28;20030;-77
2021/07/06 10:35:51;;;;;;;1.30;1.20;;;28.80;68.60;;;;;;5052979;28;20409;-77
2021/07/06 10:38:26;;;;;;;;;;;29.00;67.50;;;;;;5051182;28;20142;-77
2021/07/06 10:40:55;;;;;;;1.92;1.08;;;29.00;65.00;;;;;;5051476;28;20354;-77
2021/07/06 10:43:50;;;;;;;1.13;1.02;;;29.10;69.40;;;;;;5052763;28;20025;-77
2021/07/06 10:46:19;;;;;;;1.30;1.20;;;29.10;66.70;;;;;;5052647;28;20033;-77
2021/07/06 10:48:50;;;;;;;1.30;1.20;;;29.10;68.30;;;;;;5052659;28;20029;-77
2021/07/06 10:51:34;;;;;;;0.90;0.90;;;29.10;68.70;;;;;;5052615;28;20025;-77
2021/07/06 10:54:14;;;;;;;1.60;1.27;;;29.20;66.20;;;;;;5052563;28;20102;-74
2021/07/06 10:56:43;;;;;;;1.27;0.88;;;29.40;67.70;;;;;;5052612;28;20063;-77
2021/07/06 10:59:21;;;;;;;1.42;1.33;;;29.30;64.00;;;;;;5051101;28;20104;-76
2021/07/06 11:01:51;;;;;;;1.98;1.77;;;29.40;64.40;;;;;;5051185;28;20123;-77
2021/07/06 11:04:51;;;;;;;1.20;1.20;;;29.50;68.00;;;;;;5052878;28;20058;-77
2021/07/06 11:07:40;;;;;;;1.08;1.02;;;29.60;66.40;;;;;;5056414;28;20025;-77
2021/07/06 11:10:08;;;;;;;1.30;1.20;;;29.60;63.40;;;;;;5056672;28;20389;-77
2021/07/06 11:12:40;;;;;;;1.23;1.23;;;29.60;62.20;;;;;;5055249;28;20017;-76
2021/07/06 11:15:27;;;;;;;1.52;1.30;;;29.80;66.90;;;;;;5055309;28;20487;-77
2021/07/06 11:18:10;;;;;;;1.80;1.67;;;29.90;67.90;;;;;;5056508;28;20398;-77
2021/07/06 11:20:43;;;;;;;1.25;1.25;;;30.00;66.80;;;;;;5056935;28;20028;-77
2021/07/06 11:23:28;;;;;;;1.50;1.40;;;30.00;62.60;;;;;;5055810;28;20032;-77
2021/07/06 11:26:01;;;;;;;1.38;1.23;;;30.00;62.00;;;;;;5056423;28;20025;-77
2021/07/06 11:28:27;;;;;;;1.38;1.38;;;30.00;64.40;;;;;;5056634;28;20505;-77
2021/07/06 11:30:55;;;;;;;1.60;1.40;;;30.20;65.00;;;;;;5075195;28;20091;-77
2021/07/06 11:33:30;;;;;;;1.77;1.67;;;30.30;65.70;;;;;;5076171;28;20025;-77
2021/07/06 11:35:57;;;;;;;1.75;1.65;;;30.40;64.40;;;;;;5076027;28;20105;-77
2021/07/06 11:38:42;;;;;;;1.30;1.30;;;30.40;61.40;;;;;;5076208;28;20383;-77
2021/07/06 11:41:10;;;;;;;2.13;1.83;;;30.40;63.30;;;;;;5070723;28;20029;-77
2021/07/06 11:43:37;;;;;;;1.70;1.60;;;30.40;63.20;;;;;;5056081;28;20024;-77
2021/07/06 11:46:22;;;;;;;3.17;1.30;;;30.40;60.50;;;;;;5055852;28;20036;-77
2021/07/06 11:48:51;;;;;;;1.33;1.30;;;30.60;62.90;;;;;;5055880;28;20067;-77
2021/07/06 11:51:19;;;;;;;1.55;1.45;;;30.70;62.90;;;;;;5054524;28;20027;-77
2021/07/06 11:53:46;;;;;;;2.72;1.40;;;30.80;64.80;;;;;;5055748;28;20120;-74
2021/07/06 11:56:13;;;;;;;1.30;1.30;;;30.80;60.00;;;;;;5055695;28;20025;-74
2021/07/06 11:58:40;;;;;;;5.28;1.50;;;30.80;59.70;;;;;;5054387;28;20064;-74
2021/07/06 12:01:11;;;;;;;1.27;1.27;;;30.90;60.60;;;;;;5055527;28;20029;-74
2021/07/06 12:03:38;;;;;;;1.58;1.48;;;30.80;58.70;;;;;;5055565;28;20040;-74
2021/07/06 12:06:09;;;;;;;2.75;1.20;;;30.90;61.60;;;;;;5055295;28;20357;-74
2021/07/06 12:08:37;;;;;;;1.67;1.58;;;31.00;60.10;;;;;;5055465;28;20035;-74
2021/07/06 12:11:06;;;;;;;1.52;1.42;;;31.20;60.10;;;;;;5055629;28;20471;-74
2021/07/06 12:13:35;;;;;;;1.38;1.27;;;31.30;57.80;;;;;;5055463;28;20047;-74
2021/07/06 12:16:03;;;;;;;2.00;1.83;;;31.50;59.80;;;;;;5053536;28;20025;-74
2021/07/06 12:18:33;;;;;;;1.63;1.52;;;31.50;59.60;;;;;;5053809;28;20025;-74
2021/07/06 12:21:06;;;;;;;1.23;1.17;;;31.60;57.50;;;;;;5055420;28;20025;-74
2021/07/06 12:23:33;;;;;;;1.40;1.30;;;31.50;59.20;;;;;;5055439;28;20100;-74
2021/07/06 12:25:59;;;;;;;2.45;1.52;;;31.50;59.00;;;;;;5053913;28;20064;-74
2021/07/06 12:28:26;;;;;;;1.85;1.50;;;31.60;59.30;;;;;;5053565;28;20029;-73
2021/07/06 12:31:14;;;;;;;4.00;1.80;;;31.60;59.30;;;;;;5053510;28;20632;-73
2021/07/06 12:33:41;;;;;;;1.50;1.40;;;31.90;60.90;;;;;;5055069;28;20055;-74
2021/07/06 12:36:07;;;;;;;1.90;1.80;;;32.00;59.60;;;;;;5054869;28;20048;-74
2021/07/06 12:38:33;;;;;;;2.30;1.45;;;32.00;56.90;;;;;;5054909;28;20487;-74
2021/07/06 12:40:59;;;;;;;1.50;1.42;;;32.00;59.30;;;;;;5054930;28;20083;-74
2021/07/06 12:43:25;;;;;;;1.10;1.10;;;32.10;57.10;;;;;;5054717;28;20496;-74
2021/07/06 12:45:50;;;;;;;1.58;1.48;;;32.20;58.90;;;;;;5054583;28;20164;-74
2021/07/06 12:48:28;;;;;;;1.73;1.42;;;32.20;58.40;;;;;;5054174;28;20480;-74
2021/07/06 12:51:10;;;;;;;1.55;1.45;;;32.10;56.80;;;;;;5054074;28;20021;-74
2021/07/06 12:53:36;;;;;;;1.27;1.25;;;32.00;55.20;;;;;;5054058;28;20086;-74
2021/07/06 12:56:23;;;;;;;1.60;1.50;;;32.10;57.10;;;;;;5053882;28;20467;-74
2021/07/06 12:58:49;;;;;;;1.27;1.17;;;32.30;56.80;;;;;;5053901;28;20025;-74